createdAt,value
2018-07-11T00:02:02.804Z,68.00
2018-07-11T00:04:30.546Z,67.60
2018-07-11T00:06:58.132Z,69.00
2018-07-11T00:09:28.727Z,69.00
2018-07-11T00:11:56.362Z,69.00
2018-07-11T00:16:58.073Z,67.00
2018-07-11T00:19:25.819Z,67.50
2018-07-11T00:21:59.705Z,65.60
2018-07-11T00:24:32.808Z,65.00
2018-07-11T00:27:00.524Z,65.00
2018-07-11T00:29:28.297Z,65.00
2018-07-11T00:31:55.988Z,65.00
2018-07-11T00:34:23.747Z,65.00
2018-07-11T00:36:51.369Z,65.30
2018-07-11T00:39:19.278Z,65.00
2018-07-11T00:41:46.951Z,65.10
2018-07-11T00:44:14.690Z,66.40
2018-07-11T00:46:42.490Z,64.90
2018-07-11T00:51:43.277Z,66.80
2018-07-11T00:54:11.435Z,66.00
2018-07-11T00:56:41.284Z,66.00
2018-07-11T00:59:20.572Z,66.10
2018-07-11T01:01:50.783Z,66.50
2018-07-11T01:04:18.449Z,67.20
2018-07-11T01:06:46.296Z,67.10
2018-07-11T01:09:14.015Z,67.40
2018-07-11T01:11:41.700Z,67.50
2018-07-11T01:14:11.079Z,67.60
2018-07-11T01:16:38.892Z,67.70
2018-07-11T01:19:10.506Z,67.90
2018-07-11T01:21:38.575Z,68.50
2018-07-11T01:24:06.292Z,68.80
2018-07-11T01:26:35.201Z,69.00
2018-07-11T01:29:06.732Z,68.90
2018-07-11T01:31:34.294Z,69.10
2018-07-11T01:34:01.956Z,69.00
2018-07-11T01:36:31.989Z,69.20
2018-07-11T01:39:06.018Z,69.20
2018-07-11T01:41:33.743Z,69.30
2018-07-11T01:44:01.467Z,69.50
2018-07-11T01:46:35.455Z,69.40
2018-07-11T01:49:03.149Z,69.50
2018-07-11T01:51:42.260Z,69.40
2018-07-11T01:54:10.015Z,69.80
2018-07-11T01:56:38.911Z,69.40
2018-07-11T01:59:06.655Z,69.50
2018-07-11T02:01:34.371Z,69.40
2018-07-11T02:04:02.122Z,69.40
2018-07-11T02:06:30.338Z,69.40
2018-07-11T02:08:58.132Z,69.40
2018-07-11T02:11:25.918Z,68.80
2018-07-11T02:13:53.662Z,68.00
2018-07-11T02:16:21.437Z,68.50
2018-07-11T02:18:49.100Z,68.70
2018-07-11T02:21:16.799Z,68.40
2018-07-11T02:23:44.437Z,68.30
2018-07-11T02:26:12.217Z,68.10
2018-07-11T02:28:39.931Z,68.40
2018-07-11T02:31:07.512Z,69.20
2018-07-11T02:33:35.185Z,68.80
2018-07-11T02:36:03.094Z,68.80
2018-07-11T02:38:31.084Z,69.20
2018-07-11T02:40:58.888Z,69.20
2018-07-11T02:43:26.601Z,69.40
2018-07-11T02:45:54.420Z,69.20
2018-07-11T02:48:22.218Z,69.90
2018-07-11T02:50:49.968Z,69.30
2018-07-11T02:53:21.446Z,69.20
2018-07-11T02:55:50.185Z,69.20
2018-07-11T02:58:17.792Z,69.30
2018-07-11T03:00:45.556Z,69.20
2018-07-11T03:03:13.490Z,69.30
2018-07-11T03:05:41.188Z,69.90
2018-07-11T03:08:08.884Z,70.30
2018-07-11T03:10:36.601Z,70.50
2018-07-11T03:13:04.279Z,70.70
2018-07-11T03:15:32.073Z,70.90
2018-07-11T03:17:59.802Z,71.20
2018-07-11T03:20:27.534Z,71.30
2018-07-11T03:22:55.189Z,71.30
2018-07-11T03:25:22.992Z,71.60
2018-07-11T03:27:50.737Z,71.70
2018-07-11T03:30:18.341Z,71.90
2018-07-11T03:32:46.102Z,72.00
2018-07-11T03:35:13.774Z,72.50
2018-07-11T03:37:41.531Z,72.70
2018-07-11T03:40:09.155Z,72.80
2018-07-11T03:42:37.199Z,73.30
2018-07-11T03:45:04.942Z,73.30
2018-07-11T03:47:32.594Z,73.80
2018-07-11T03:50:00.773Z,73.80
2018-07-11T03:54:56.094Z,73.70
2018-07-11T03:57:24.360Z,73.70
2018-07-11T03:59:52.082Z,73.70
2018-07-11T04:02:19.839Z,73.60
2018-07-11T04:04:47.500Z,73.70
2018-07-11T04:07:15.124Z,73.60
2018-07-11T04:09:42.825Z,73.70
2018-07-11T04:12:10.582Z,73.60
2018-07-11T04:14:38.616Z,74.10
2018-07-11T04:17:06.357Z,73.90
2018-07-11T04:19:34.001Z,73.60
2018-07-11T04:22:01.501Z,74.20
2018-07-11T04:24:29.195Z,74.60
2018-07-11T04:26:57.062Z,74.70
2018-07-11T04:29:25.007Z,74.40
2018-07-11T04:31:52.696Z,74.20
2018-07-11T04:34:21.631Z,73.90
2018-07-11T04:36:49.299Z,73.60
2018-07-11T04:39:17.107Z,73.40
2018-07-11T04:41:44.928Z,72.60
2018-07-11T04:44:13.340Z,72.20
2018-07-11T04:46:41.266Z,72.30
2018-07-11T04:49:09.558Z,72.50
2018-07-11T04:51:37.264Z,71.90
2018-07-11T04:54:04.968Z,71.80
2018-07-11T04:56:32.787Z,71.30
2018-07-11T04:59:00.498Z,72.00
2018-07-11T05:01:28.200Z,71.70
2018-07-11T05:03:55.823Z,71.50
2018-07-11T05:06:23.540Z,71.30
2018-07-11T05:08:51.185Z,71.30
2018-07-11T05:11:18.857Z,72.00
2018-07-11T05:13:46.624Z,72.30
2018-07-11T05:16:14.277Z,72.40
2018-07-11T05:18:41.787Z,72.40
2018-07-11T05:21:09.356Z,72.70
2018-07-11T05:23:36.963Z,71.40
2018-07-11T05:26:04.605Z,70.70
2018-07-11T05:28:32.576Z,70.30
2018-07-11T05:31:00.238Z,70.00
2018-07-11T05:33:27.765Z,69.00
2018-07-11T05:35:55.621Z,68.60
2018-07-11T05:38:23.291Z,68.20
2018-07-11T05:40:50.939Z,66.60
2018-07-11T05:43:18.497Z,65.90
2018-07-11T05:45:46.704Z,64.40
2018-07-11T05:48:14.493Z,63.90
2018-07-11T05:50:42.138Z,63.50
2018-07-11T05:55:37.869Z,63.90
2018-07-11T05:58:05.388Z,64.50
2018-07-11T06:03:00.956Z,66.70
2018-07-11T06:05:28.707Z,67.40
2018-07-11T06:07:56.449Z,67.20
2018-07-11T06:10:24.273Z,65.90
2018-07-11T06:12:52.003Z,65.80
2018-07-11T06:15:19.576Z,66.10
2018-07-11T06:17:47.159Z,67.30
2018-07-11T06:20:14.903Z,66.90
2018-07-11T06:22:42.597Z,66.00
2018-07-11T06:25:10.297Z,65.10
2018-07-11T06:27:38.051Z,64.80
2018-07-11T06:30:05.848Z,65.90
2018-07-11T06:32:33.603Z,66.10
2018-07-11T06:35:01.389Z,66.00
2018-07-11T06:37:29.143Z,66.50
2018-07-11T06:39:56.831Z,67.00
2018-07-11T06:42:24.542Z,66.90
2018-07-11T06:44:52.319Z,66.50
2018-07-11T06:47:19.990Z,65.70
2018-07-11T06:49:47.750Z,65.50
2018-07-11T06:52:15.844Z,65.80
2018-07-11T06:54:43.486Z,65.70
2018-07-11T06:57:11.157Z,65.40
2018-07-11T06:59:39.122Z,66.00
2018-07-11T07:02:07.080Z,65.90
2018-07-11T07:04:34.746Z,65.70
2018-07-11T07:07:02.618Z,65.70
2018-07-11T07:09:30.261Z,64.60
2018-07-11T07:11:57.996Z,63.50
2018-07-11T07:14:25.697Z,61.90
2018-07-11T07:16:53.785Z,61.40
2018-07-11T07:19:22.677Z,59.20
2018-07-11T07:21:51.186Z,57.00
2018-07-11T07:24:18.807Z,56.70
2018-07-11T07:26:46.469Z,56.70
2018-07-11T07:29:14.105Z,58.30
2018-07-11T07:31:42.073Z,55.40
2018-07-11T07:34:09.805Z,56.80
2018-07-11T07:36:37.530Z,58.70
2018-07-11T07:39:05.314Z,59.90
2018-07-11T07:41:32.951Z,58.40
2018-07-11T07:44:01.237Z,58.70
2018-07-11T07:46:28.880Z,58.40
2018-07-11T07:48:56.949Z,57.70
2018-07-11T07:51:24.677Z,58.60
2018-07-11T07:53:52.429Z,59.30
2018-07-11T07:56:20.520Z,60.00
2018-07-11T07:58:48.213Z,61.20
2018-07-11T08:01:15.880Z,62.30
2018-07-11T08:03:43.672Z,61.80
2018-07-11T08:06:11.521Z,60.90
2018-07-11T08:08:39.375Z,61.00
2018-07-11T08:11:07.025Z,60.10
2018-07-11T08:13:34.651Z,60.40
2018-07-11T08:16:02.771Z,58.80
2018-07-11T08:18:30.325Z,59.00
2018-07-11T08:20:58.442Z,58.90
2018-07-11T08:23:38.953Z,57.60
2018-07-11T08:26:18.079Z,56.70
2018-07-11T08:31:35.520Z,57.00
2018-07-11T08:34:12.495Z,57.30
2018-07-11T08:36:51.292Z,57.90
2018-07-11T08:39:40.928Z,58.20
2018-07-11T08:42:50.966Z,59.00
2018-07-11T08:45:40.272Z,57.20
2018-07-11T08:49:18.617Z,56.50
2018-07-11T08:51:53.823Z,55.00
2018-07-11T08:56:35.274Z,56.50
2018-07-11T08:59:13.061Z,57.60
2018-07-11T09:02:09.858Z,57.20
2018-07-11T09:04:51.049Z,56.40
2018-07-11T09:10:16.988Z,56.20
2018-07-11T09:12:59.550Z,55.30
2018-07-11T09:17:40.975Z,55.80
2018-07-11T09:20:24.372Z,54.70
2018-07-11T09:25:23.051Z,53.70
2018-07-11T09:27:50.672Z,55.00
2018-07-11T09:30:18.389Z,52.60
2018-07-11T09:32:46.157Z,50.40
2018-07-11T09:35:13.849Z,52.10
2018-07-11T09:37:41.462Z,52.50
2018-07-11T09:40:09.319Z,51.10
2018-07-11T09:42:37.002Z,50.70
2018-07-11T09:45:04.641Z,51.40
2018-07-11T09:47:32.296Z,53.10
2018-07-11T09:49:59.947Z,53.60
2018-07-11T09:52:28.773Z,54.60
2018-07-11T09:54:56.692Z,54.80
2018-07-11T09:57:25.186Z,55.40
2018-07-11T09:59:52.908Z,54.70
2018-07-11T10:02:20.547Z,54.40
2018-07-11T10:04:48.197Z,53.80
2018-07-11T10:07:15.829Z,54.80
2018-07-11T10:09:43.476Z,54.60
2018-07-11T10:14:38.920Z,52.80
2018-07-11T10:17:06.521Z,53.00
2018-07-11T10:19:34.223Z,51.40
2018-07-11T10:22:01.978Z,51.50
2018-07-11T10:24:30.469Z,52.40
2018-07-11T10:29:25.683Z,53.00
2018-07-11T10:31:53.304Z,53.00
2018-07-11T10:34:20.938Z,54.60
2018-07-11T10:36:48.538Z,54.60
2018-07-11T10:39:16.224Z,54.60
2018-07-11T10:41:43.816Z,54.10
2018-07-11T10:44:11.686Z,54.80
2018-07-11T10:46:39.428Z,52.50
2018-07-11T10:49:07.172Z,52.10
2018-07-11T10:51:34.903Z,50.10
2018-07-11T10:54:02.741Z,49.30
2018-07-11T10:56:30.433Z,49.70
2018-07-11T10:58:58.362Z,50.30
2018-07-11T11:01:26.064Z,49.30
2018-07-11T11:03:53.929Z,48.20
2018-07-11T11:06:21.722Z,46.70
2018-07-11T11:08:49.341Z,45.50
2018-07-11T11:11:17.533Z,44.60
2018-07-11T11:13:45.318Z,44.70
2018-07-11T11:16:13.189Z,43.90
2018-07-11T11:18:40.969Z,44.50
2018-07-11T11:21:08.724Z,43.70
2018-07-11T11:23:36.635Z,43.20
2018-07-11T11:26:04.626Z,42.90
2018-07-11T11:28:32.349Z,44.90
2018-07-11T11:31:00.180Z,45.60
2018-07-11T11:33:27.894Z,46.40
2018-07-11T11:35:55.747Z,45.60
2018-07-11T11:38:23.423Z,47.00
2018-07-11T11:40:51.188Z,46.10
2018-07-11T11:43:19.175Z,45.00
2018-07-11T11:45:46.829Z,44.50
2018-07-11T11:48:14.711Z,44.60
2018-07-11T11:50:42.386Z,44.40
2018-07-11T11:53:10.130Z,43.90
2018-07-11T11:55:38.141Z,44.20
2018-07-11T11:58:06.356Z,43.60
2018-07-11T12:00:34.116Z,42.80
2018-07-11T12:03:01.873Z,43.40
2018-07-11T12:05:29.625Z,42.10
2018-07-11T12:07:57.405Z,41.60
2018-07-11T12:10:25.271Z,42.50
2018-07-11T12:12:52.933Z,42.30
2018-07-11T12:15:20.629Z,43.60
2018-07-11T12:17:48.288Z,44.20
2018-07-11T12:20:16.001Z,46.50
2018-07-11T12:22:43.860Z,47.30
2018-07-11T12:25:11.728Z,46.90
2018-07-11T12:27:40.188Z,48.10
2018-07-11T12:30:08.211Z,45.90
2018-07-11T12:32:35.903Z,44.90
2018-07-11T12:35:03.561Z,44.90
2018-07-11T12:37:31.477Z,46.20
2018-07-11T12:39:59.220Z,47.20
2018-07-11T12:42:26.974Z,47.80
2018-07-11T12:44:54.697Z,46.30
2018-07-11T12:47:27.891Z,44.50
2018-07-11T12:49:55.896Z,42.90
2018-07-11T12:52:23.892Z,44.10
2018-07-11T12:54:52.044Z,44.20
2018-07-11T12:57:19.760Z,44.00
2018-07-11T12:59:48.127Z,43.00
2018-07-11T13:02:15.761Z,42.10
2018-07-11T13:04:43.460Z,41.00
2018-07-11T13:07:11.253Z,41.00
2018-07-11T13:09:38.989Z,40.50
2018-07-11T13:12:07.008Z,41.90
2018-07-11T13:14:34.743Z,42.10
2018-07-11T13:17:02.589Z,40.60
2018-07-11T13:19:30.313Z,38.80
2018-07-11T13:21:58.002Z,39.60
2018-07-11T13:24:26.890Z,40.80
2018-07-11T13:29:22.238Z,41.70
2018-07-11T13:31:49.912Z,41.90
2018-07-11T13:34:17.781Z,41.30
2018-07-11T13:36:45.618Z,41.80
2018-07-11T13:39:20.763Z,42.10
2018-07-11T13:41:49.350Z,41.80
2018-07-11T13:44:17.674Z,40.40
2018-07-11T13:46:45.608Z,41.20
2018-07-11T13:49:13.862Z,40.40
2018-07-11T13:51:41.787Z,40.20
2018-07-11T13:54:10.201Z,39.40
2018-07-11T13:59:05.773Z,37.50
2018-07-11T14:01:33.977Z,38.40
2018-07-11T14:04:02.371Z,39.10
2018-07-11T14:06:30.518Z,39.40
2018-07-11T14:08:59.698Z,40.40
2018-07-11T14:11:28.017Z,39.00
2018-07-11T14:16:24.009Z,40.10
2018-07-11T14:18:52.268Z,39.30
2018-07-11T14:21:20.131Z,39.60
2018-07-11T14:23:48.316Z,38.00
2018-07-11T14:26:19.141Z,39.70
2018-07-11T14:28:50.025Z,39.00
2018-07-11T14:33:51.133Z,40.00
2018-07-11T14:36:19.585Z,40.20
2018-07-11T14:38:50.219Z,41.10
2018-07-11T14:41:18.011Z,41.70
2018-07-11T14:43:45.875Z,42.30
2018-07-11T14:46:14.463Z,42.30
2018-07-11T14:48:43.359Z,43.30
2018-07-11T14:51:11.221Z,43.60
2018-07-11T14:53:38.952Z,43.50
2018-07-11T14:56:06.731Z,43.50
2018-07-11T14:58:37.319Z,44.30
2018-07-11T15:01:05.191Z,44.80
2018-07-11T15:03:33.163Z,45.40
2018-07-11T15:06:00.986Z,44.60
2018-07-11T15:08:31.070Z,45.20
2018-07-11T15:10:58.748Z,44.50
2018-07-11T15:13:28.354Z,44.40
2018-07-11T15:15:56.150Z,44.90
2018-07-11T15:18:29.197Z,44.90
2018-07-11T15:21:01.164Z,45.00
2018-07-11T15:23:29.958Z,44.70
2018-07-11T15:26:00.826Z,44.20
2018-07-11T15:28:28.757Z,44.20
2018-07-11T15:30:56.535Z,44.80
2018-07-11T15:33:26.406Z,44.80
2018-07-11T15:35:56.434Z,44.40
2018-07-11T15:38:28.658Z,44.80
2018-07-11T15:41:01.571Z,43.80
2018-07-11T15:43:30.377Z,43.80
2018-07-11T15:45:59.208Z,43.70
2018-07-11T15:48:27.600Z,45.00
2018-07-11T15:50:57.560Z,44.30
2018-07-11T15:53:26.593Z,43.70
2018-07-11T15:55:54.504Z,44.40
2018-07-11T15:58:25.770Z,44.70
2018-07-11T16:00:53.646Z,44.60
2018-07-11T16:03:21.589Z,44.70
2018-07-11T16:05:50.554Z,43.60
2018-07-11T16:08:22.224Z,43.60
2018-07-11T16:10:53.052Z,43.90
2018-07-11T16:13:20.808Z,43.90
2018-07-11T16:18:17.392Z,44.10
2018-07-11T16:20:45.164Z,44.40
2018-07-11T16:23:15.194Z,44.50
2018-07-11T16:25:43.574Z,44.30
2018-07-11T16:28:15.662Z,44.30
2018-07-11T16:30:43.499Z,44.40
2018-07-11T16:33:13.211Z,43.80
2018-07-11T16:35:43.634Z,44.00
2018-07-11T16:38:12.522Z,44.00
2018-07-11T16:40:42.093Z,44.50
2018-07-11T16:43:09.856Z,44.00
2018-07-11T16:45:37.555Z,44.90
2018-07-11T16:48:07.555Z,44.60
2018-07-11T16:50:35.298Z,45.90
2018-07-11T16:53:09.554Z,45.30
2018-07-11T16:55:39.453Z,44.90
2018-07-11T16:58:08.432Z,45.30
2018-07-11T17:00:37.239Z,45.30
2018-07-11T17:03:09.201Z,45.90
2018-07-11T17:05:59.528Z,45.90
2018-07-11T17:08:31.315Z,45.30
2018-07-11T17:11:04.381Z,44.10
2018-07-11T17:13:34.531Z,44.90
2018-07-11T17:16:03.712Z,45.20
2018-07-11T17:18:46.711Z,44.60
2018-07-11T17:21:27.753Z,44.80
2018-07-11T17:24:03.872Z,44.60
2018-07-11T17:26:33.044Z,44.90
2018-07-11T17:29:01.952Z,45.70
2018-07-11T17:31:29.684Z,45.20
2018-07-11T17:33:58.417Z,45.50
2018-07-11T17:36:28.196Z,44.80
2018-07-11T17:38:55.920Z,45.10
2018-07-11T17:41:29.125Z,44.60
2018-07-11T17:44:03.319Z,44.40
2018-07-11T17:46:32.295Z,45.00
2018-07-11T17:49:06.796Z,44.80
2018-07-11T17:51:48.937Z,43.80
2018-07-11T17:54:18.242Z,43.90
2018-07-11T17:56:52.778Z,43.70
2018-07-11T17:59:32.699Z,44.40
2018-07-11T18:02:00.876Z,43.70
2018-07-11T18:04:40.824Z,43.70
2018-07-11T18:07:15.597Z,43.50
2018-07-11T18:09:58.796Z,44.50
2018-07-11T18:12:40.245Z,44.80
2018-07-11T18:15:22.349Z,45.80
2018-07-11T18:18:06.174Z,45.80
2018-07-11T18:20:45.685Z,45.10
2018-07-11T18:23:23.545Z,44.40
2018-07-11T18:26:04.303Z,44.40
2018-07-11T18:28:52.464Z,44.20
2018-07-11T18:33:34.466Z,45.10
2018-07-11T18:37:18.344Z,45.10
2018-07-11T18:40:04.316Z,44.50
2018-07-11T18:42:43.927Z,44.90
2018-07-11T18:45:35.210Z,46.20
2018-07-11T18:48:17.837Z,45.40
2018-07-11T18:51:26.125Z,45.30
2018-07-11T18:54:06.675Z,46.00
2018-07-11T19:01:03.263Z,46.00
2018-07-11T19:03:34.093Z,46.40
2018-07-11T19:08:19.858Z,48.70
2018-07-11T19:11:27.274Z,48.90
2018-07-11T19:14:08.637Z,49.50
2018-07-11T19:18:50.397Z,49.10
2018-07-11T19:22:28.046Z,49.90
2018-07-11T19:25:13.110Z,50.30
2018-07-11T19:28:06.605Z,50.50
2018-07-11T19:31:00.193Z,51.00
2018-07-11T19:33:36.883Z,51.30
2018-07-11T19:37:21.090Z,51.20
2018-07-11T19:39:58.460Z,51.20
2018-07-11T19:42:38.141Z,51.90
2018-07-11T19:45:16.913Z,51.80
2018-07-11T19:47:56.213Z,51.40
2018-07-11T19:51:33.829Z,51.70
2018-07-11T19:54:10.115Z,51.60
2018-07-11T19:56:45.923Z,51.90
2018-07-11T19:59:14.406Z,51.90
2018-07-11T20:01:42.994Z,51.70
2018-07-11T20:04:11.637Z,51.80
2018-07-11T20:06:40.091Z,51.90
2018-07-11T20:09:13.239Z,51.70
2018-07-11T20:11:42.245Z,51.60
2018-07-11T20:14:10.294Z,52.00
2018-07-11T20:16:38.245Z,52.30
2018-07-11T20:19:06.711Z,52.70
2018-07-11T20:21:34.839Z,51.70
2018-07-11T20:24:03.062Z,52.00
2018-07-11T20:26:31.038Z,51.60
2018-07-11T20:28:58.952Z,51.20
2018-07-11T20:31:26.708Z,52.30
2018-07-11T20:33:54.414Z,52.60
2018-07-11T20:36:22.127Z,53.10
2018-07-11T20:38:49.951Z,53.90
2018-07-11T20:41:17.731Z,54.80
2018-07-11T20:43:45.769Z,54.40
2018-07-11T20:46:13.690Z,54.30
2018-07-11T20:48:41.563Z,53.00
2018-07-11T20:51:09.763Z,52.80
2018-07-11T20:53:37.579Z,53.30
2018-07-11T20:56:05.301Z,52.90
2018-07-11T20:58:44.879Z,53.80
2018-07-11T21:01:23.876Z,53.00
2018-07-11T21:08:13.525Z,53.50
2018-07-11T21:10:53.526Z,52.80
2018-07-11T21:15:37.889Z,52.10
2018-07-11T21:19:13.685Z,51.50
2018-07-11T21:21:42.394Z,52.20
2018-07-11T21:24:11.212Z,52.40
2018-07-11T21:26:39.339Z,52.80
2018-07-11T21:29:07.702Z,52.70
2018-07-11T21:31:35.539Z,52.20
2018-07-11T21:34:03.534Z,52.20
2018-07-11T21:36:31.201Z,52.60
2018-07-11T21:38:58.814Z,52.70
2018-07-11T21:41:30.823Z,53.30
2018-07-11T21:43:58.586Z,52.50
2018-07-11T21:46:26.369Z,53.20
2018-07-11T21:48:54.175Z,53.50
2018-07-11T21:51:21.849Z,53.20
2018-07-11T21:53:49.500Z,53.50
2018-07-11T21:56:17.290Z,53.00
2018-07-11T21:58:45.070Z,52.60
2018-07-11T22:01:15.672Z,52.50
2018-07-11T22:03:43.350Z,52.60
2018-07-11T22:06:11.788Z,52.60
2018-07-11T22:08:39.597Z,53.10
2018-07-11T22:11:07.360Z,52.60
2018-07-11T22:13:35.106Z,53.10
2018-07-11T22:16:02.916Z,53.70
2018-07-11T22:18:36.399Z,54.60
2018-07-11T22:21:04.044Z,54.70
2018-07-11T22:23:31.594Z,53.80
2018-07-11T22:25:58.236Z,54.00
2018-07-11T22:28:24.844Z,55.10
2018-07-11T22:30:52.949Z,55.10
2018-07-11T22:33:19.702Z,55.20
2018-07-11T22:35:46.288Z,55.70
2018-07-11T22:38:14.005Z,55.90
2018-07-11T22:40:41.873Z,56.00
2018-07-11T22:43:09.015Z,55.40
2018-07-11T22:45:35.721Z,55.90
2018-07-11T22:48:03.373Z,56.50
2018-07-11T22:50:30.514Z,56.80
2018-07-11T22:52:57.096Z,56.00
2018-07-11T22:55:23.690Z,55.80
2018-07-11T22:57:50.779Z,54.70
2018-07-11T23:00:18.102Z,54.40
2018-07-11T23:02:48.755Z,53.90
2018-07-11T23:05:20.276Z,54.90
2018-07-11T23:07:46.805Z,55.50
2018-07-11T23:10:16.361Z,56.50
2018-07-11T23:12:42.853Z,57.80
2018-07-11T23:15:09.508Z,58.70
2018-07-11T23:17:36.144Z,59.50
2018-07-11T23:20:06.649Z,60.00
2018-07-11T23:22:33.251Z,60.50
2018-07-11T23:24:59.808Z,60.50
2018-07-11T23:27:26.394Z,60.60
2018-07-11T23:29:52.989Z,60.50
2018-07-11T23:32:19.540Z,60.50
2018-07-11T23:34:47.098Z,60.50
2018-07-11T23:37:14.132Z,60.50
2018-07-11T23:39:44.456Z,60.50
2018-07-11T23:42:11.359Z,61.10
2018-07-11T23:44:43.004Z,61.00
2018-07-11T23:47:09.633Z,61.60
2018-07-11T23:49:37.066Z,61.60
2018-07-11T23:52:03.625Z,60.50
2018-07-11T23:54:33.925Z,60.50
2018-07-11T23:57:00.479Z,60.60
2018-07-11T23:59:34.049Z,60.10
